Aviation Digital Data Service (ADDS)

Output produced by METARs form (1144 UTC 30 September 2016)
found at http://aviationweather.gov/adds/metars/
 
KDFW 301120Z 3012/0118 36007KT P6SM FEW300 
     FM010000 VRB02KT P6SM FEW300 
     FM011500 16004KT P6SM SCT250